x

Fowey Rock, Fl (fwyf1) Weather Station

3:00pm - Fri 20th Apr 2018 All times are EDT. -4 hours from GMT.

  • Wind
    8mph, 9mph gusts
  • Sea Temp 78°f
  • Air Temp 77°f
  • Sea Pressure 1019mb
  • Fowey Rock, Fl
  • Fowey Rock, Fl

More Historic Weather Station data

Upgrade to MSW Pro to gain access to the past 30 days of data for over 8000 Wavebouys and Weather Stations around the globe.

Join

Comparision Forecast

View Surf forecast
   
Fri 04/20 3:00pm 8 9 mph 1019mb 78f 77f
2:00pm 7 8 mph 1019.7mb 78f 76f
1:00pm 5 5 mph 1020.5mb 78f 76f
12:00pm 1 2 mph 1021mb 78f 75f
11:00am 3 5 mph 1020.6mb 77f 74f
10:00am 7 8 mph 1020.1mb 77f 73f
9:00am 9 10 mph 1019.9mb 77f 73f
8:00am 10 10 mph 1019.7mb 77f 73f
7:00am 9 10 mph 1019.2mb 77f 73f
6:00am 11 13 mph 1018.8mb 77f 74f
5:00am 9 10 mph 1018.5mb 77f 73f
4:00am 8 10 mph 1018.5mb 77f 74f
3:00am 7 8 mph 1018.7mb 77f 75f
2:00am 7 8 mph 1019.1mb 77f 75f
1:00am 7 8 mph 1019.2mb 77f 75f
12:00am 8 9 mph 1019.8mb 77f 76f
Thu 04/19 11:00pm 9 10 mph 1020.2mb 77f 77f
10:00pm 9 10 mph 1020mb 78f 77f
9:00pm 10 10 mph 1019.2mb 78f 77f
8:00pm 10 11 mph 1018.7mb 78f 77f
7:00pm 11 13 mph 1018.6mb 78f 78f
6:00pm 13 14 mph 1018.5mb 78f 78f
5:00pm 9 11 mph 1018.6mb 78f 77f
4:00pm 10 10 mph 1019mb 78f 76f
3:00pm 8 8 mph 1019.7mb 78f 76f
2:00pm  -  1 mph 1020.3mb 78f 78f
1:00pm  -  0 mph 1020.9mb 78f 75f
12:00pm  -  1 mph 1021.1mb 77f 75f
11:00am 2 3 mph 1020.9mb 77f 76f
10:00am 5 6 mph 1020.8mb 77f 77f
9:00am 11 11 mph 1020.5mb 77f 76f
8:00am 11 14 mph 1020.2mb 76f 74f
7:00am 10 10 mph 1019.7mb 76f 74f
6:00am 10 13 mph 1019.2mb 76f 73f
5:00am 10 11 mph 1019mb 77f 74f
4:00am 13 15 mph 1018.7mb 77f 74f
3:00am 14 16 mph 1018.8mb 77f 74f
2:00am 14 16 mph 1019.4mb 77f 74f
1:00am 14 17 mph 1019.8mb 77f 74f
12:00am 15 17 mph 1020mb 77f 74f
Wed 04/18 11:00pm 16 17 mph 1020.3mb 77f 75f
10:00pm 20 20 mph 1020.3mb 77f 75f
9:00pm 15 17 mph 1020.3mb 77f 75f
8:00pm 17 18 mph 1019.8mb 77f 75f
7:00pm 14 16 mph 1019.9mb 77f 75f
6:00pm 10 11 mph 1019.9mb 77f 75f
5:00pm 13 13 mph 1019.7mb 77f 75f
4:00pm 11 14 mph 1019.8mb 77f 74f
3:00pm 9 11 mph 1020.3mb 77f 74f
2:00pm 9 10 mph 1020.9mb 77f 74f
1:00pm 11 13 mph 1021.3mb 77f 74f
12:00pm 10 11 mph 1021.2mb 77f 74f
11:00am 9 11 mph 1021.1mb 77f 74f
10:00am 8 9 mph 1020.8mb 77f 74f
9:00am 8 9 mph 1020.6mb 77f 74f
8:00am 8 9 mph 1020.1mb 76f 74f
7:00am 6 8 mph 1019.5mb 76f 73f
6:00am 6 7 mph 1018.7mb 76f 73f
5:00am 5 6 mph 1018.2mb 77f 73f
4:00am 6 8 mph 1018.2mb 77f 73f
3:00am 7 8 mph 1018.7mb 77f 73f
2:00am 6 8 mph 1018.9mb 77f 73f
1:00am 10 11 mph 1019.5mb 77f 73f
12:00am 8 10 mph 1020mb 77f 73f
Tue 04/17 11:00pm 8 8 mph 1020.2mb 77f 73f
10:00pm 8 9 mph 1020.1mb 77f 72f
9:00pm 7 9 mph 1019.8mb 77f 72f
8:00pm 14 16 mph 1019.4mb 77f 72f
7:00pm 13 15 mph 1019.1mb 77f 72f
6:00pm 14 16 mph 1019.1mb 77f 72f
5:00pm 14 16 mph 1019mb 78f 71f
4:00pm 15 17 mph 1019.3mb 77f 71f
3:00pm 15 17 mph 1020mb 77f 70f
2:00pm 15 20 mph 1020.5mb 77f 69f
1:00pm 15 16 mph 1021.2mb 77f 68f
12:00pm 15 20 mph 1021.6mb 77f 68f
11:00am 16 17 mph 1021.7mb 77f 67f
10:00am 20 23 mph 1021.5mb 77f 66f
9:00am 25 28 mph 1021mb 77f 65f
8:00am 25 28 mph 1020.8mb 77f 64f
7:00am 25 31 mph 1020mb 77f 64f
6:00am 26 28 mph 1019.5mb 78f 64f
5:00am 26 30 mph 1019.1mb 78f 64f
4:00am 29 31 mph 1019.1mb 78f 64f
3:00am 30 32 mph 1019.4mb 78f 63f
2:00am 31 32 mph 1019.8mb 78f 64f
1:00am 26 30 mph 1020mb 78f 66f
12:00am 24 26 mph 1020.1mb 77f 68f
Mon 04/16 11:00pm 23 24 mph 1019.7mb 78f 71f
10:00pm 18 20 mph 1019.1mb 78f 74f
9:00pm 15 16 mph 1018.4mb 78f 76f